Time;durP1;ratioP1;P1;durP2;ratioP2;P2;SDS_P1;SDS_P2;PMS_P1;PMS_P2;Temp;Humidity;BMP_temperature;BMP_pressure;BME280_temperature;BME280_humidity;BME280_pressure;Samples;Min_cycle;Max_cycle;Signal;HPM_P1;HPM_P2
2023/10/22 00:01:18;;;;;;;7.25;3.50;;;17.40;99.90;;;;;;5012772;28;20198;-71
2023/10/22 00:03:43;;;;;;;8.07;4.07;;;17.40;99.90;;;;;;5014286;28;20359;-71
2023/10/22 00:06:09;;;;;;;4.65;3.63;;;17.50;99.90;;;;;;5012696;28;20029;-71
2023/10/22 00:08:35;;;;;;;9.02;3.60;;;17.50;99.90;;;;;;5017548;28;20047;-70
2023/10/22 00:11:01;;;;;;;6.03;4.05;;;17.40;99.90;;;;;;5008713;28;20087;-70
2023/10/22 00:13:26;;;;;;;6.53;3.80;;;17.40;99.90;;;;;;5003288;28;20055;-71
2023/10/22 00:15:52;;;;;;;11.00;4.15;;;17.50;99.90;;;;;;5008237;28;20129;-71
2023/10/22 00:18:17;;;;;;;9.20;5.53;;;17.50;99.90;;;;;;5016797;28;20035;-70
2023/10/22 00:20:43;;;;;;;6.15;4.43;;;17.40;99.90;;;;;;5012514;28;20806;-70
2023/10/22 00:23:09;;;;;;;5.68;4.25;;;17.40;99.90;;;;;;5010696;28;20074;-71
2023/10/22 00:25:37;;;;;;;8.13;4.07;;;17.40;99.90;;;;;;5014575;28;20116;-71
2023/10/22 00:28:03;;;;;;;7.05;3.92;;;17.30;99.90;;;;;;5017067;28;20034;-70
2023/10/22 00:30:30;;;;;;;6.25;4.45;;;17.30;99.90;;;;;;5021320;28;20044;-71
2023/10/22 00:32:56;;;;;;;10.07;4.35;;;17.30;99.90;;;;;;5009171;28;20582;-71
2023/10/22 00:35:22;;;;;;;6.93;4.75;;;17.40;99.90;;;;;;5001982;28;20761;-72
2023/10/22 00:37:48;;;;;;;7.88;4.18;;;17.40;99.90;;;;;;5020554;28;20045;-71
2023/10/22 00:40:16;;;;;;;9.52;4.15;;;17.40;99.90;;;;;;5012870;28;22518;-72
2023/10/22 00:42:42;;;;;;;9.68;3.92;;;17.40;99.90;;;;;;5014848;28;20063;-72
2023/10/22 00:45:08;;;;;;;8.85;4.28;;;17.40;99.90;;;;;;5002080;28;20092;-71
2023/10/22 00:47:34;;;;;;;7.85;4.13;;;17.40;99.90;;;;;;5018339;28;20104;-71
2023/10/22 00:50:01;;;;;;;10.32;4.78;;;17.40;99.90;;;;;;5012521;28;20040;-71
2023/10/22 00:52:27;;;;;;;13.00;4.68;;;17.40;99.90;;;;;;5009425;28;20030;-72
2023/10/22 00:54:54;;;;;;;9.00;4.70;;;17.30;99.90;;;;;;5008673;28;20061;-72
2023/10/22 00:57:22;;;;;;;7.07;4.65;;;17.30;99.90;;;;;;5014510;28;20057;-73
2023/10/22 00:59:51;;;;;;;9.38;4.65;;;17.30;99.90;;;;;;5006352;28;20041;-72
2023/10/22 01:02:17;;;;;;;10.27;4.60;;;17.40;99.90;;;;;;5010272;28;20029;-72
2023/10/22 01:04:43;;;;;;;12.10;4.65;;;17.30;99.90;;;;;;5011621;28;20030;-70
2023/10/22 01:07:09;;;;;;;8.10;4.22;;;17.40;99.90;;;;;;5010942;28;20048;-72
2023/10/22 01:09:35;;;;;;;7.63;4.22;;;17.30;99.90;;;;;;5013123;28;20501;-72
2023/10/22 01:12:03;;;;;;;13.85;4.30;;;17.40;99.90;;;;;;5010384;28;20594;-70
2023/10/22 01:14:29;;;;;;;10.30;4.60;;;17.30;99.90;;;;;;5010913;28;20318;-71
2023/10/22 01:16:54;;;;;;;8.15;4.28;;;17.40;99.90;;;;;;5009907;28;20427;-71
2023/10/22 01:19:20;;;;;;;13.65;4.63;;;17.30;99.90;;;;;;5011225;28;20788;-71
2023/10/22 01:21:46;;;;;;;10.52;4.90;;;17.30;99.90;;;;;;5016408;28;20402;-70
2023/10/22 01:24:11;;;;;;;14.98;5.90;;;17.30;99.90;;;;;;5014570;28;20518;-71
2023/10/22 01:26:44;;;;;;;13.32;5.53;;;17.30;99.90;;;;;;5015463;28;20103;-71
2023/10/22 01:29:10;;;;;;;6.80;4.07;;;17.30;99.90;;;;;;5015036;28;20107;-71
2023/10/22 01:31:36;;;;;;;7.15;4.30;;;17.30;99.90;;;;;;5015316;28;20128;-70
2023/10/22 01:34:02;;;;;;;8.35;3.92;;;17.30;99.90;;;;;;5009856;28;20030;-70
2023/10/22 01:36:28;;;;;;;12.02;4.03;;;17.30;99.90;;;;;;5020525;28;20227;-70
2023/10/22 01:38:54;;;;;;;8.85;3.97;;;17.30;99.90;;;;;;5009648;28;20041;-70
2023/10/22 01:41:20;;;;;;;10.07;4.30;;;17.30;99.90;;;;;;5010487;28;20912;-70
2023/10/22 01:43:46;;;;;;;11.30;4.65;;;17.40;99.90;;;;;;5009703;28;20038;-70
2023/10/22 01:46:11;;;;;;;10.55;5.07;;;17.40;99.90;;;;;;5007772;28;20041;-70
2023/10/22 01:48:38;;;;;;;10.32;4.43;;;17.40;99.90;;;;;;5011510;28;20095;-72
2023/10/22 01:51:04;;;;;;;10.68;4.68;;;17.40;99.90;;;;;;5010029;28;20037;-72
2023/10/22 01:53:29;;;;;;;11.00;4.93;;;17.40;99.90;;;;;;5009753;28;20041;-72
2023/10/22 01:55:55;;;;;;;8.25;4.85;;;17.30;99.90;;;;;;5010734;28;20046;-73
2023/10/22 01:58:21;;;;;;;11.73;4.47;;;17.30;99.90;;;;;;5010359;28;20049;-73
2023/10/22 02:00:48;;;;;;;8.27;4.60;;;17.30;99.90;;;;;;5010151;28;20025;-72
2023/10/22 02:03:14;;;;;;;11.88;4.38;;;17.30;99.90;;;;;;5008545;28;20026;-73
2023/10/22 02:05:40;;;;;;;10.23;4.32;;;17.30;99.90;;;;;;5016134;28;20061;-70
2023/10/22 02:08:06;;;;;;;9.38;4.22;;;17.30;99.90;;;;;;5015319;28;20055;-70
2023/10/22 02:10:33;;;;;;;6.72;4.07;;;17.30;99.90;;;;;;5008261;28;20042;-71
2023/10/22 02:12:59;;;;;;;9.02;5.00;;;17.20;99.90;;;;;;5020132;28;20045;-70
2023/10/22 02:15:27;;;;;;;14.35;4.95;;;17.20;99.90;;;;;;5020126;28;20120;-71
2023/10/22 02:17:53;;;;;;;7.07;4.40;;;17.20;99.90;;;;;;5008312;28;20113;-69
2023/10/22 02:20:19;;;;;;;8.35;4.85;;;17.20;99.90;;;;;;5004976;28;20072;-71
2023/10/22 02:22:44;;;;;;;9.55;4.90;;;17.20;99.90;;;;;;5007345;28;20156;-70
2023/10/22 02:25:10;;;;;;;10.20;4.68;;;17.20;99.90;;;;;;5007537;28;20176;-73
2023/10/22 02:27:36;;;;;;;9.65;4.57;;;17.20;99.90;;;;;;5011034;28;20076;-73
2023/10/22 02:30:02;;;;;;;7.75;4.47;;;17.20;99.90;;;;;;5008816;28;20380;-73
2023/10/22 02:32:27;;;;;;;13.55;4.68;;;17.20;99.90;;;;;;5009807;28;20026;-72
2023/10/22 02:34:53;;;;;;;12.20;4.65;;;17.30;99.90;;;;;;5009471;28;20555;-72
2023/10/22 02:37:19;;;;;;;10.55;4.38;;;17.20;99.90;;;;;;5009852;28;20034;-72
2023/10/22 02:39:46;;;;;;;7.85;3.85;;;17.20;99.90;;;;;;5010562;28;20105;-72
2023/10/22 02:42:12;;;;;;;7.90;4.47;;;17.20;99.90;;;;;;5008744;28;20041;-72
2023/10/22 02:44:37;;;;;;;8.77;3.90;;;17.20;99.90;;;;;;5009166;28;20096;-70
2023/10/22 02:47:03;;;;;;;7.53;4.05;;;17.20;99.90;;;;;;4997148;28;20037;-70
2023/10/22 02:49:30;;;;;;;7.03;4.15;;;17.20;99.90;;;;;;5010095;28;20105;-70
2023/10/22 02:51:56;;;;;;;8.60;3.78;;;17.20;99.90;;;;;;5009313;28;20042;-70
2023/10/22 02:54:21;;;;;;;8.93;4.05;;;17.20;99.90;;;;;;5011263;28;20040;-70
2023/10/22 02:56:47;;;;;;;9.07;3.78;;;17.20;99.90;;;;;;5005910;28;20510;-70
2023/10/22 02:59:14;;;;;;;10.25;3.85;;;17.20;99.90;;;;;;5009716;28;20053;-70
2023/10/22 03:01:40;;;;;;;8.52;4.28;;;17.10;99.90;;;;;;5007591;28;20573;-70
2023/10/22 03:04:05;;;;;;;11.57;4.07;;;17.10;99.90;;;;;;5007643;28;20038;-70
2023/10/22 03:06:31;;;;;;;5.07;3.83;;;17.10;99.90;;;;;;5008252;28;21112;-70
2023/10/22 03:08:57;;;;;;;6.80;3.40;;;17.10;99.90;;;;;;5009510;28;20153;-70
2023/10/22 03:11:22;;;;;;;6.65;3.58;;;17.20;99.90;;;;;;5002499;28;20038;-70
2023/10/22 03:13:50;;;;;;;9.35;3.83;;;17.20;99.90;;;;;;5019173;28;20054;-70
2023/10/22 03:16:16;;;;;;;7.18;3.00;;;17.20;99.90;;;;;;5016332;28;20045;-70
2023/10/22 03:18:44;;;;;;;7.97;3.47;;;17.20;99.90;;;;;;5011791;28;20095;-70
2023/10/22 03:21:14;;;;;;;7.38;3.25;;;17.10;99.90;;;;;;5012429;28;20103;-73
2023/10/22 03:23:41;;;;;;;7.28;3.70;;;17.10;99.90;;;;;;5006191;28;20034;-73
2023/10/22 03:26:08;;;;;;;8.73;3.83;;;17.00;99.90;;;;;;5010829;28;20033;-73
2023/10/22 03:28:35;;;;;;;6.50;3.70;;;17.00;99.90;;;;;;5015238;28;20026;-73
2023/10/22 03:31:07;;;;;;;6.60;3.50;;;17.00;99.90;;;;;;5007877;28;21704;-72
2023/10/22 03:33:33;;;;;;;6.03;3.60;;;16.90;99.90;;;;;;5011586;28;20026;-72
2023/10/22 03:36:00;;;;;;;8.13;3.53;;;16.90;99.90;;;;;;5012017;28;20507;-72
2023/10/22 03:38:26;;;;;;;4.00;3.25;;;16.90;99.90;;;;;;5015146;28;20133;-72
2023/10/22 03:41:04;;;;;;;5.07;3.40;;;17.00;99.90;;;;;;5008770;28;20038;-73
2023/10/22 03:43:30;;;;;;;11.80;3.75;;;17.00;99.90;;;;;;5017651;28;20428;-72
2023/10/22 03:45:57;;;;;;;7.85;3.95;;;16.90;99.90;;;;;;5014231;28;20048;-73
2023/10/22 03:48:27;;;;;;;8.48;3.65;;;16.90;99.90;;;;;;5014241;28;20076;-72
2023/10/22 03:50:53;;;;;;;6.15;3.35;;;16.90;99.90;;;;;;5011604;28;20848;-73
2023/10/22 03:53:19;;;;;;;4.78;3.60;;;16.90;99.90;;;;;;5016112;28;20026;-73
2023/10/22 03:55:45;;;;;;;7.28;3.83;;;16.90;99.90;;;;;;5014253;28;20040;-72
2023/10/22 03:58:11;;;;;;;10.02;4.20;;;16.90;99.90;;;;;;5015670;28;20490;-73
2023/10/22 04:00:36;;;;;;;7.68;3.83;;;16.90;99.90;;;;;;5015361;28;20069;-72
2023/10/22 04:03:02;;;;;;;6.47;4.00;;;16.90;99.90;;;;;;5011384;28;20096;-73
2023/10/22 04:05:28;;;;;;;5.90;3.95;;;16.90;99.90;;;;;;5017680;28;20033;-73
2023/10/22 04:07:54;;;;;;;6.15;3.75;;;16.90;99.90;;;;;;5016646;28;20028;-73
2023/10/22 04:10:20;;;;;;;6.90;4.05;;;16.90;99.90;;;;;;5007190;28;20042;-73
2023/10/22 04:12:45;;;;;;;9.48;3.90;;;16.90;99.90;;;;;;4994760;28;20045;-73
2023/10/22 04:15:11;;;;;;;10.13;6.45;;;17.00;99.90;;;;;;5014787;28;20046;-72
2023/10/22 04:17:37;;;;;;;7.20;5.10;;;17.00;99.90;;;;;;5011188;28;20042;-72
2023/10/22 04:20:03;;;;;;;8.05;4.78;;;17.00;99.90;;;;;;5010399;28;20471;-73
2023/10/22 04:22:29;;;;;;;6.85;4.38;;;17.00;99.90;;;;;;5010684;28;20076;-74
2023/10/22 04:24:55;;;;;;;5.88;4.93;;;17.00;99.90;;;;;;5017325;28;20131;-73
2023/10/22 04:27:20;;;;;;;11.15;7.65;;;17.00;99.90;;;;;;5005508;28;20033;-73
2023/10/22 04:29:46;;;;;;;11.80;6.45;;;17.00;99.90;;;;;;5009877;28;20081;-73
2023/10/22 04:32:13;;;;;;;9.55;5.30;;;16.90;99.90;;;;;;5013524;28;20037;-72
2023/10/22 04:34:39;;;;;;;9.00;5.20;;;16.90;99.90;;;;;;5011088;28;20030;-73
2023/10/22 04:37:06;;;;;;;8.27;5.30;;;16.90;99.90;;;;;;5015543;28;20038;-73
2023/10/22 04:39:32;;;;;;;6.57;5.15;;;16.80;99.90;;;;;;5015718;28;20034;-73
2023/10/22 04:41:58;;;;;;;4.90;4.35;;;16.80;99.90;;;;;;5013767;28;20601;-73
2023/10/22 04:44:23;;;;;;;5.80;4.15;;;16.70;99.90;;;;;;5010617;28;20044;-73
2023/10/22 04:46:52;;;;;;;7.95;4.75;;;16.70;99.90;;;;;;5003588;28;20853;-73
2023/10/22 04:49:18;;;;;;;7.90;3.58;;;16.70;99.90;;;;;;5011911;28;20034;-73
2023/10/22 04:51:44;;;;;;;9.30;4.18;;;16.70;99.90;;;;;;5005328;28;20076;-72
2023/10/22 04:54:10;;;;;;;5.47;2.97;;;16.70;99.90;;;;;;5010651;28;20038;-73
2023/10/22 04:56:35;;;;;;;3.95;2.63;;;16.70;99.90;;;;;;5015218;28;20056;-72
2023/10/22 04:59:02;;;;;;;2.90;2.15;;;16.60;99.90;;;;;;5011169;28;20069;-73
2023/10/22 05:01:27;;;;;;;5.60;2.10;;;16.60;99.90;;;;;;5012542;28;20054;-71
2023/10/22 05:03:53;;;;;;;5.55;2.60;;;16.50;99.90;;;;;;5002815;28;20512;-72
2023/10/22 05:06:19;;;;;;;6.20;4.30;;;16.50;99.90;;;;;;5013847;28;20034;-74
2023/10/22 05:08:44;;;;;;;8.15;6.18;;;16.50;99.90;;;;;;5013845;28;20038;-72
2023/10/22 05:11:14;;;;;;;6.35;4.03;;;16.60;99.90;;;;;;5010056;28;20056;-69
2023/10/22 05:13:40;;;;;;;4.70;2.22;;;16.50;99.90;;;;;;5016691;28;20045;-69
2023/10/22 05:16:07;;;;;;;4.47;2.10;;;16.50;99.90;;;;;;5016367;28;20049;-69
2023/10/22 05:18:33;;;;;;;4.90;2.38;;;16.50;99.90;;;;;;5012817;28;20484;-69
2023/10/22 05:21:04;;;;;;;5.35;2.78;;;16.50;99.90;;;;;;5013331;28;20445;-69
2023/10/22 05:23:30;;;;;;;2.72;1.55;;;16.50;99.90;;;;;;5020132;28;20143;-69
2023/10/22 05:26:22;;;;;;;3.72;1.60;;;16.50;99.90;;;;;;5013316;28;20045;-68
2023/10/22 05:28:48;;;;;;;7.00;6.07;;;16.50;99.90;;;;;;5015804;28;20045;-69
2023/10/22 05:31:18;;;;;;;15.68;13.02;;;16.50;99.90;;;;;;5018458;28;20030;-69
2023/10/22 05:33:45;;;;;;;2.72;1.08;;;16.50;99.90;;;;;;5016174;28;20127;-69
2023/10/22 05:36:18;;;;;;;2.75;1.27;;;16.50;99.90;;;;;;5013551;28;20058;-69
2023/10/22 05:38:44;;;;;;;1.75;1.13;;;16.50;99.90;;;;;;5016716;28;20106;-69
2023/10/22 05:41:17;;;;;;;5.95;3.38;;;16.40;99.90;;;;;;5017878;28;20120;-70
2023/10/22 05:43:43;;;;;;;2.67;1.80;;;16.40;99.90;;;;;;5002795;28;20042;-69
2023/10/22 05:46:08;;;;;;;2.47;1.10;;;16.40;99.90;;;;;;5013444;28;20080;-69
2023/10/22 05:48:34;;;;;;;2.58;1.02;;;16.40;99.90;;;;;;5020867;28;20113;-69
2023/10/22 05:51:00;;;;;;;4.32;0.90;;;16.40;99.90;;;;;;5018994;28;20034;-69
2023/10/22 05:53:26;;;;;;;1.38;0.80;;;16.40;99.90;;;;;;5014840;28;20060;-69
2023/10/22 05:55:56;;;;;;;1.95;0.75;;;16.30;99.90;;;;;;5015702;28;20081;-72
2023/10/22 05:58:21;;;;;;;1.63;0.80;;;16.30;99.90;;;;;;5012663;28;20086;-73
2023/10/22 06:00:50;;;;;;;5.65;0.73;;;16.30;99.90;;;;;;5001409;28;20038;-73
2023/10/22 06:03:16;;;;;;;3.40;0.90;;;16.30;99.90;;;;;;4988488;28;20568;-71
2023/10/22 06:05:41;;;;;;;4.63;1.25;;;16.30;99.90;;;;;;4998535;28;20045;-75
2023/10/22 06:08:07;;;;;;;3.88;1.10;;;16.20;99.90;;;;;;4998210;28;20042;-73
2023/10/22 06:10:39;;;;;;;2.88;1.00;;;16.20;99.90;;;;;;4996694;28;20549;-73
2023/10/22 06:13:05;;;;;;;2.90;1.30;;;16.20;99.90;;;;;;4998540;28;20388;-73
2023/10/22 06:15:31;;;;;;;4.13;1.90;;;16.10;99.90;;;;;;4992940;28;20081;-72
2023/10/22 06:17:56;;;;;;;4.82;1.70;;;16.10;99.90;;;;;;4997659;28;20045;-73
2023/10/22 06:20:22;;;;;;;2.70;2.10;;;16.10;99.90;;;;;;4995236;28;20196;-73
2023/10/22 06:22:48;;;;;;;3.85;1.83;;;16.00;99.90;;;;;;4991150;28;20026;-73
2023/10/22 06:25:14;;;;;;;6.25;2.33;;;16.00;99.90;;;;;;4994960;28;20034;-73
2023/10/22 06:27:40;;;;;;;3.33;1.92;;;16.10;99.90;;;;;;5011570;28;20041;-73
2023/10/22 06:30:06;;;;;;;5.72;2.58;;;16.10;99.90;;;;;;4992594;28;20043;-73
2023/10/22 06:32:32;;;;;;;5.93;4.78;;;16.00;99.90;;;;;;5006515;28;20042;-71
2023/10/22 06:34:58;;;;;;;2.83;1.80;;;16.00;99.90;;;;;;4998994;28;20104;-72
2023/10/22 06:37:23;;;;;;;2.72;1.70;;;16.00;99.90;;;;;;4989919;28;20031;-74
2023/10/22 06:39:51;;;;;;;2.28;1.95;;;16.00;99.90;;;;;;4997686;28;20042;-75
2023/10/22 06:42:16;;;;;;;2.78;2.55;;;16.00;99.90;;;;;;4991504;28;20049;-73
2023/10/22 06:44:43;;;;;;;4.47;2.75;;;15.90;99.90;;;;;;4995343;28;20038;-75
2023/10/22 06:47:09;;;;;;;5.78;3.85;;;15.90;99.90;;;;;;4992845;28;20113;-72
2023/10/22 06:49:35;;;;;;;3.50;3.20;;;15.90;99.90;;;;;;4993641;28;20274;-70
2023/10/22 06:52:00;;;;;;;4.05;3.47;;;15.80;99.90;;;;;;4994442;28;20141;-68
2023/10/22 06:54:27;;;;;;;4.70;3.33;;;15.70;99.90;;;;;;4994943;28;20812;-69
2023/10/22 06:56:52;;;;;;;3.47;3.17;;;15.70;99.90;;;;;;4986596;28;20057;-71
2023/10/22 06:59:18;;;;;;;4.15;3.75;;;15.60;99.90;;;;;;4993477;28;20050;-70
2023/10/22 07:01:43;;;;;;;3.20;2.90;;;15.50;99.90;;;;;;4991188;28;20819;-71
2023/10/22 07:04:09;;;;;;;4.65;3.40;;;15.40;99.90;;;;;;4991461;28;20038;-69
2023/10/22 07:06:35;;;;;;;4.22;3.22;;;15.40;99.90;;;;;;4993707;28;20131;-72
2023/10/22 07:09:01;;;;;;;4.10;2.60;;;15.40;99.90;;;;;;4988581;28;20112;-71
2023/10/22 07:11:26;;;;;;;3.08;2.30;;;15.40;99.90;;;;;;4991794;28;20724;-72
2023/10/22 07:13:52;;;;;;;3.00;2.63;;;15.40;99.90;;;;;;4996168;28;20029;-72
2023/10/22 07:16:18;;;;;;;2.50;2.28;;;15.30;99.90;;;;;;4995325;28;21665;-71
2023/10/22 07:18:44;;;;;;;4.35;2.45;;;15.30;99.90;;;;;;4996170;28;20037;-74
2023/10/22 07:21:09;;;;;;;3.10;2.58;;;15.20;99.90;;;;;;4996232;28;20065;-72
2023/10/22 07:23:35;;;;;;;2.70;2.50;;;15.20;99.90;;;;;;4983441;28;20268;-73
2023/10/22 07:26:01;;;;;;;3.70;2.50;;;15.10;99.90;;;;;;4991222;28;21851;-75
2023/10/22 07:28:26;;;;;;;4.82;2.92;;;15.20;99.90;;;;;;5007806;28;20122;-71
2023/10/22 07:30:52;;;;;;;5.88;2.58;;;15.20;99.90;;;;;;4994035;28;20374;-73
2023/10/22 07:33:18;;;;;;;4.13;2.70;;;15.30;99.90;;;;;;4994227;28;20042;-74
2023/10/22 07:36:00;;;;;;;4.72;3.03;;;15.30;99.90;;;;;;4989091;28;20061;-76
2023/10/22 07:38:31;;;;;;;2.90;2.38;;;15.20;99.90;;;;;;4991762;28;20042;-74
2023/10/22 07:40:58;;;;;;;3.17;2.88;;;15.30;99.90;;;;;;5004375;28;21978;-70
2023/10/22 07:43:25;;;;;;;3.55;2.78;;;15.40;99.90;;;;;;4990437;28;20137;-72
2023/10/22 07:45:51;;;;;;;4.05;2.60;;;15.40;99.90;;;;;;4993849;28;20606;-71
2023/10/22 07:48:16;;;;;;;4.30;2.15;;;15.40;99.90;;;;;;4994397;28;20033;-71
2023/10/22 07:50:42;;;;;;;5.20;2.42;;;15.40;99.90;;;;;;4990455;28;20124;-72
2023/10/22 07:53:08;;;;;;;2.95;2.38;;;15.40;99.90;;;;;;4990817;28;20069;-73
2023/10/22 07:55:34;;;;;;;5.85;4.38;;;15.50;99.90;;;;;;4989732;28;20046;-75
2023/10/22 07:58:00;;;;;;;3.67;2.38;;;15.50;99.90;;;;;;4992593;28;20086;-72
2023/10/22 08:00:25;;;;;;;3.67;1.88;;;15.50;99.90;;;;;;4991023;28;20053;-72
2023/10/22 08:02:52;;;;;;;3.42;1.75;;;15.50;99.90;;;;;;4984055;28;20045;-72
2023/10/22 08:05:18;;;;;;;2.13;1.60;;;15.50;99.90;;;;;;4990231;28;20054;-74
2023/10/22 08:07:44;;;;;;;2.15;2.00;;;15.60;99.90;;;;;;4988833;28;20033;-75
2023/10/22 08:10:10;;;;;;;1.63;1.52;;;15.50;99.90;;;;;;4992883;28;20407;-71
2023/10/22 08:12:35;;;;;;;5.75;1.70;;;15.50;99.90;;;;;;4989728;28;20045;-71
2023/10/22 08:15:01;;;;;;;2.42;1.80;;;15.50;99.90;;;;;;4992159;28;20118;-73
2023/10/22 08:17:27;;;;;;;2.67;1.60;;;15.50;99.90;;;;;;4986545;28;20036;-72
2023/10/22 08:19:53;;;;;;;1.98;1.88;;;15.60;99.90;;;;;;4991357;28;20050;-72
2023/10/22 08:22:19;;;;;;;2.80;1.67;;;15.60;99.90;;;;;;4979640;28;20726;-71
2023/10/22 08:24:48;;;;;;;1.58;1.48;;;15.60;99.90;;;;;;4982600;28;20053;-73
2023/10/22 08:27:15;;;;;;;4.60;1.60;;;15.80;99.90;;;;;;4987898;28;20037;-72
2023/10/22 08:29:40;;;;;;;2.30;1.60;;;15.90;99.90;;;;;;4986105;28;20089;-78
2023/10/22 08:32:06;;;;;;;1.70;1.40;;;15.80;99.90;;;;;;4994030;28;20124;-79
2023/10/22 08:34:35;;;;;;;1.50;1.40;;;15.80;99.90;;;;;;4988477;28;20050;-78
2023/10/22 08:37:02;;;;;;;2.70;1.45;;;15.80;99.90;;;;;;4988159;28;20051;-76
2023/10/22 08:39:28;;;;;;;1.80;1.35;;;15.80;99.90;;;;;;4989583;28;20061;-78
2023/10/22 08:42:01;;;;;;;1.20;1.10;;;15.90;99.90;;;;;;4993610;28;20113;-76
2023/10/22 08:44:29;;;;;;;2.10;1.30;;;16.00;99.90;;;;;;5008823;28;20042;-70
2023/10/22 08:46:55;;;;;;;16.90;2.75;;;16.10;99.90;;;;;;4989512;28;20040;-70
2023/10/22 08:49:22;;;;;;;2.67;1.00;;;16.10;99.90;;;;;;4994864;28;20503;-73
2023/10/22 08:51:48;;;;;;;2.38;1.17;;;16.00;99.90;;;;;;4987791;28;20402;-73
2023/10/22 08:54:14;;;;;;;1.30;1.08;;;16.00;99.90;;;;;;4992237;28;20026;-69
2023/10/22 08:56:42;;;;;;;1.23;0.90;;;15.90;99.90;;;;;;4990294;28;20793;-71
2023/10/22 08:59:08;;;;;;;10.20;1.50;;;15.90;99.90;;;;;;5008001;28;20065;-69
2023/10/22 09:01:34;;;;;;;0.90;0.90;;;15.90;99.90;;;;;;5011437;28;20044;-68
2023/10/22 09:04:01;;;;;;;1.38;0.80;;;15.80;99.90;;;;;;5011117;28;20773;-69
2023/10/22 09:06:27;;;;;;;0.68;0.68;;;15.60;99.90;;;;;;5029267;28;20410;-69
2023/10/22 09:08:52;;;;;;;2.17;1.17;;;15.50;99.90;;;;;;5017799;28;20044;-73
2023/10/22 09:11:20;;;;;;;2.08;0.90;;;15.30;99.90;;;;;;5016284;28;20037;-73
2023/10/22 09:13:46;;;;;;;0.77;0.70;;;15.20;99.90;;;;;;5020322;28;20042;-72
2023/10/22 09:16:33;;;;;;;4.38;1.00;;;15.20;99.90;;;;;;5015298;28;20049;-73
2023/10/22 09:19:01;;;;;;;1.35;0.82;;;15.10;99.90;;;;;;5013668;28;20033;-72
2023/10/22 09:21:44;;;;;;;1.42;0.88;;;15.10;99.90;;;;;;5014270;28;20072;-69
2023/10/22 09:24:09;;;;;;;3.65;1.10;;;15.10;99.90;;;;;;5015909;28;20048;-69
2023/10/22 09:26:47;;;;;;;1.67;0.68;;;15.20;99.90;;;;;;5013537;28;20033;-70
2023/10/22 09:29:13;;;;;;;2.38;0.93;;;15.30;99.90;;;;;;5017743;28;20025;-73
2023/10/22 09:31:49;;;;;;;1.50;1.02;;;15.30;99.90;;;;;;5012755;28;20037;-69
2023/10/22 09:34:28;;;;;;;3.60;1.20;;;15.30;99.90;;;;;;5017489;28;20026;-69
2023/10/22 09:36:55;;;;;;;1.02;1.02;;;15.30;99.90;;;;;;5011626;28;20046;-69
2023/10/22 09:39:42;;;;;;;0.60;0.60;;;15.20;99.90;;;;;;5017944;28;20064;-71
2023/10/22 09:42:09;;;;;;;0.55;0.55;;;15.20;99.90;;;;;;5016804;28;20048;-68
2023/10/22 09:44:37;;;;;;;1.00;0.80;;;15.20;99.90;;;;;;5017304;28;20033;-68
2023/10/22 09:47:06;;;;;;;0.77;0.75;;;15.20;99.90;;;;;;5016927;28;20037;-69
2023/10/22 09:49:33;;;;;;;2.55;1.00;;;15.30;99.90;;;;;;5014369;28;20062;-71
2023/10/22 09:52:09;;;;;;;0.60;0.60;;;15.30;99.90;;;;;;5020847;28;20108;-69
2023/10/22 09:54:39;;;;;;;0.95;0.40;;;15.20;99.90;;;;;;5017096;28;20058;-69
2023/10/22 09:57:08;;;;;;;1.35;0.90;;;15.30;99.90;;;;;;5013437;28;20060;-70
2023/10/22 09:59:34;;;;;;;2.40;0.85;;;15.30;99.90;;;;;;5011254;28;20060;-69
2023/10/22 10:02:01;;;;;;;0.95;0.80;;;15.30;99.90;;;;;;5012974;28;20226;-69
2023/10/22 10:04:30;;;;;;;0.98;0.70;;;15.20;99.90;;;;;;5015858;28;20754;-69
2023/10/22 10:06:57;;;;;;;0.55;0.55;;;15.20;99.90;;;;;;5018260;28;20207;-68
2023/10/22 10:09:24;;;;;;;2.38;0.90;;;15.10;99.90;;;;;;5013881;28;20056;-69
2023/10/22 10:11:51;;;;;;;0.70;0.70;;;15.20;99.90;;;;;;5015178;28;20099;-68
2023/10/22 10:14:42;;;;;;;1.88;0.85;;;15.20;99.90;;;;;;5016912;28;20026;-69
2023/10/22 10:17:09;;;;;;;1.42;0.90;;;15.30;99.90;;;;;;5012084;28;20046;-67
2023/10/22 10:19:35;;;;;;;1.80;0.80;;;15.30;99.90;;;;;;5014665;28;20128;-68
2023/10/22 10:22:01;;;;;;;2.20;0.70;;;15.20;99.90;;;;;;5016978;28;20028;-68
2023/10/22 10:24:27;;;;;;;0.95;0.70;;;15.20;99.90;;;;;;5016428;28;20378;-70
2023/10/22 10:26:58;;;;;;;1.13;1.00;;;15.20;99.90;;;;;;5013821;28;20026;-70
2023/10/22 10:29:30;;;;;;;0.80;0.80;;;15.20;99.90;;;;;;5013461;28;20052;-70
2023/10/22 10:32:15;;;;;;;1.10;0.70;;;15.20;99.90;;;;;;5011351;28;20033;-70
2023/10/22 10:34:49;;;;;;;1.35;0.73;;;15.10;99.90;;;;;;5013255;28;20561;-74
2023/10/22 10:37:18;;;;;;;2.03;1.50;;;15.20;99.90;;;;;;5014395;28;20063;-72
2023/10/22 10:39:45;;;;;;;1.85;0.70;;;15.10;99.90;;;;;;5017140;28;20029;-71
2023/10/22 10:42:13;;;;;;;0.50;0.50;;;15.10;99.90;;;;;;5013798;28;20034;-70
2023/10/22 10:45:02;;;;;;;0.77;0.63;;;15.10;99.90;;;;;;5008964;28;20044;-69
2023/10/22 10:47:39;;;;;;;1.10;0.60;;;15.00;99.90;;;;;;5016370;28;20049;-70
2023/10/22 10:50:05;;;;;;;1.30;0.60;;;15.10;99.90;;;;;;5014308;28;20037;-68
2023/10/22 10:52:32;;;;;;;2.17;0.60;;;15.10;99.90;;;;;;5013988;28;20041;-68
2023/10/22 10:55:06;;;;;;;1.52;0.40;;;15.10;99.90;;;;;;5004118;28;20111;-68
2023/10/22 10:57:40;;;;;;;1.40;0.50;;;15.10;99.90;;;;;;4984860;28;20044;-69
2023/10/22 11:00:10;;;;;;;1.45;0.52;;;15.20;99.90;;;;;;5009728;28;20037;-68
2023/10/22 11:02:40;;;;;;;0.68;0.52;;;15.20;99.90;;;;;;5017671;28;20744;-66
2023/10/22 11:05:06;;;;;;;0.55;0.38;;;15.20;99.90;;;;;;5015790;28;20120;-68
2023/10/22 11:07:32;;;;;;;0.50;0.47;;;15.30;99.90;;;;;;5030010;28;20384;-69
2023/10/22 11:09:58;;;;;;;0.57;0.30;;;15.30;99.90;;;;;;5016623;28;20049;-69
2023/10/22 11:12:24;;;;;;;0.85;0.22;;;15.40;99.90;;;;;;5012255;28;20506;-68
2023/10/22 11:14:56;;;;;;;2.38;0.40;;;15.40;99.90;;;;;;5009440;28;20049;-68
2023/10/22 11:17:21;;;;;;;0.65;0.43;;;15.40;99.90;;;;;;5012052;28;20378;-67
2023/10/22 11:19:51;;;;;;;0.57;0.50;;;15.40;99.90;;;;;;5009438;28;20055;-69
2023/10/22 11:22:17;;;;;;;1.02;0.43;;;15.40;99.90;;;;;;5014584;28;20060;-70
2023/10/22 11:24:43;;;;;;;1.92;0.60;;;15.40;99.90;;;;;;5012552;28;20038;-68
2023/10/22 11:27:09;;;;;;;0.57;0.40;;;15.40;99.90;;;;;;5016621;28;20033;-69
2023/10/22 11:29:43;;;;;;;0.43;0.38;;;15.40;99.90;;;;;;5014320;28;20466;-68
2023/10/22 11:32:13;;;;;;;0.20;0.20;;;15.40;99.90;;;;;;5013452;28;20482;-68
2023/10/22 11:34:59;;;;;;;0.40;0.40;;;15.40;99.90;;;;;;5015476;28;20179;-69
2023/10/22 11:37:37;;;;;;;0.13;0.13;;;15.50;99.90;;;;;;5016508;28;20643;-69
2023/10/22 11:40:25;;;;;;;0.60;0.38;;;15.50;99.90;;;;;;5008202;28;20037;-75
2023/10/22 11:42:51;;;;;;;2.00;0.30;;;15.60;99.90;;;;;;5017793;28;20033;-70
2023/10/22 11:45:16;;;;;;;0.30;0.10;;;15.60;99.90;;;;;;5007559;28;20573;-69
2023/10/22 11:47:42;;;;;;;1.75;0.22;;;15.60;99.90;;;;;;5013073;28;20104;-68
2023/10/22 11:50:09;;;;;;;0.35;0.20;;;15.50;99.90;;;;;;5012283;28;20038;-68
2023/10/22 11:52:35;;;;;;;2.58;0.40;;;15.60;99.90;;;;;;5009704;28;20041;-69
2023/10/22 11:55:09;;;;;;;1.00;0.25;;;15.70;99.90;;;;;;5013283;28;22038;-69
2023/10/22 11:57:38;;;;;;;0.30;0.25;;;15.80;99.90;;;;;;5013602;28;20144;-69
2023/10/22 12:00:11;;;;;;;0.20;0.20;;;15.90;99.90;;;;;;5010961;28;20042;-70
2023/10/22 12:02:37;;;;;;;0.63;0.20;;;16.00;99.90;;;;;;5003914;28;20549;-71
2023/10/22 12:05:03;;;;;;;0.20;0.20;;;16.00;99.90;;;;;;5000851;28;20119;-70
2023/10/22 12:07:30;;;;;;;0.90;0.10;;;16.10;99.90;;;;;;5000343;28;20107;-69
2023/10/22 12:09:55;;;;;;;0.10;0.10;;;16.10;99.90;;;;;;4999615;28;20108;-69
2023/10/22 12:12:23;;;;;;;0.22;0.22;;;16.10;99.90;;;;;;5002054;28;20045;-71
2023/10/22 12:14:49;;;;;;;2.15;0.40;;;16.20;99.90;;;;;;5001171;28;20621;-70
2023/10/22 12:17:16;;;;;;;0.30;0.30;;;16.40;99.90;;;;;;5001862;28;20049;-70
2023/10/22 12:19:42;;;;;;;0.22;0.20;;;16.50;99.90;;;;;;4987126;28;20099;-71
2023/10/22 12:22:08;;;;;;;1.23;0.30;;;16.60;99.90;;;;;;4996921;28;20827;-70
2023/10/22 12:24:33;;;;;;;0.57;0.22;;;16.70;99.90;;;;;;4994564;28;20499;-70
2023/10/22 12:26:59;;;;;;;0.40;0.20;;;16.70;99.90;;;;;;5001376;28;20077;-71
2023/10/22 12:29:25;;;;;;;0.52;0.32;;;16.80;99.90;;;;;;5001976;28;20041;-70
2023/10/22 12:31:51;;;;;;;0.85;0.20;;;17.10;99.90;;;;;;5007886;28;20076;-71
2023/10/22 12:34:17;;;;;;;1.52;0.43;;;17.30;99.90;;;;;;5011604;28;20108;-71
2023/10/22 12:36:44;;;;;;;0.10;0.10;;;17.40;99.90;;;;;;5007153;28;20049;-71
2023/10/22 12:39:10;;;;;;;1.00;0.20;;;17.50;99.90;;;;;;5012555;28;20060;-70
2023/10/22 12:41:36;;;;;;;0.52;0.20;;;17.60;99.90;;;;;;5008768;28;20143;-72
2023/10/22 12:44:03;;;;;;;0.35;0.28;;;17.80;99.90;;;;;;5006537;28;20069;-70
2023/10/22 12:46:29;;;;;;;1.80;0.30;;;17.90;99.90;;;;;;5012831;28;20211;-68